createdAt,value
2023-01-28T00:01:25.078Z,60.15
2023-01-28T00:03:52.379Z,60.40
2023-01-28T00:06:19.504Z,60.32
2023-01-28T00:08:46.298Z,60.15
2023-01-28T00:11:13.642Z,60.15
2023-01-28T00:13:40.903Z,60.28
2023-01-28T00:16:09.707Z,60.62
2023-01-28T00:18:37.790Z,60.23
2023-01-28T00:21:10.775Z,60.48
2023-01-28T00:23:39.991Z,60.64
2023-01-28T00:26:16.882Z,60.46
2023-01-28T00:28:44.357Z,60.42
2023-01-28T00:31:22.461Z,60.10
2023-01-28T00:33:51.146Z,60.38
2023-01-28T00:36:19.317Z,60.09
2023-01-28T00:38:57.915Z,60.15
2023-01-28T00:41:28.264Z,60.52
2023-01-28T00:43:55.285Z,60.27
2023-01-28T00:46:23.203Z,60.19
2023-01-28T00:48:50.166Z,60.23
2023-01-28T00:51:18.520Z,60.31
2023-01-28T00:53:45.832Z,60.26
2023-01-28T00:56:15.969Z,60.37
2023-01-28T00:58:43.532Z,60.67
2023-01-28T01:01:20.698Z,60.49
2023-01-28T01:03:54.291Z,60.24
2023-01-28T01:06:22.435Z,60.60
2023-01-28T01:08:50.447Z,60.38
2023-01-28T01:11:18.802Z,60.56
2023-01-28T01:13:51.987Z,60.27
2023-01-28T01:16:18.785Z,60.64
2023-01-28T01:18:45.589Z,60.84
2023-01-28T01:21:18.701Z,60.55
2023-01-28T01:23:46.504Z,60.43
2023-01-28T01:26:13.779Z,60.63
2023-01-28T01:28:41.154Z,60.49
2023-01-28T01:31:15.941Z,60.36
2023-01-28T01:33:44.660Z,60.79
2023-01-28T01:36:13.607Z,60.28
2023-01-28T01:38:41.102Z,60.58
2023-01-28T01:41:09.690Z,60.21
2023-01-28T01:44:00.295Z,60.45
2023-01-28T01:46:44.380Z,60.50
2023-01-28T01:49:18.370Z,60.35
2023-01-28T01:51:49.841Z,60.75
2023-01-28T01:54:18.103Z,60.16
2023-01-28T01:56:49.550Z,60.14
2023-01-28T01:59:24.086Z,60.05
2023-01-28T02:01:51.379Z,60.60
2023-01-28T02:04:31.978Z,60.41
2023-01-28T02:07:01.761Z,60.33
2023-01-28T02:09:32.362Z,60.70
2023-01-28T02:12:09.097Z,60.59
2023-01-28T02:14:42.543Z,60.30
2023-01-28T02:17:09.895Z,60.42
2023-01-28T02:19:47.828Z,60.27
2023-01-28T02:22:35.733Z,60.46
2023-01-28T02:25:17.509Z,60.45
2023-01-28T02:28:20.696Z,60.39
2023-01-28T02:31:15.770Z,60.87
2023-01-28T02:33:58.224Z,60.64
2023-01-28T02:37:00.398Z,60.93
2023-01-28T02:39:33.747Z,60.37
2023-01-28T02:42:08.893Z,60.69
2023-01-28T02:44:35.695Z,60.78
2023-01-28T02:47:20.758Z,60.49
2023-01-28T02:49:53.413Z,60.78
2023-01-28T02:52:52.697Z,60.43
2023-01-28T02:56:12.148Z,60.54
2023-01-28T02:59:31.128Z,60.97
2023-01-28T03:02:22.568Z,60.92
2023-01-28T03:05:23.423Z,61.32
2023-01-28T03:07:51.078Z,60.96
2023-01-28T03:10:21.450Z,60.46
2023-01-28T03:13:12.220Z,60.53
2023-01-28T03:16:04.474Z,60.80
2023-01-28T03:18:58.733Z,60.93
2023-01-28T03:21:57.312Z,60.83
2023-01-28T03:24:50.688Z,61.20
2023-01-28T03:27:51.097Z,60.60
2023-01-28T03:30:44.594Z,60.89
2023-01-28T03:33:30.400Z,60.71
2023-01-28T03:36:15.669Z,61.20
2023-01-28T03:38:48.490Z,60.81
2023-01-28T03:41:23.241Z,61.06
2023-01-28T03:43:51.129Z,60.63
2023-01-28T03:46:18.435Z,60.99
2023-01-28T03:48:45.949Z,60.60
2023-01-28T03:51:12.969Z,60.71
2023-01-28T03:53:40.726Z,60.31
2023-01-28T03:56:08.750Z,60.24
2023-01-28T03:58:46.427Z,60.60
2023-01-28T04:01:13.991Z,60.58
2023-01-28T04:03:40.831Z,60.17
2023-01-28T04:06:09.708Z,60.29
2023-01-28T04:08:36.518Z,60.54
2023-01-28T04:11:15.483Z,60.67
2023-01-28T04:13:43.312Z,60.21
2023-01-28T04:16:11.679Z,59.94
2023-01-28T04:18:38.530Z,60.33
2023-01-28T04:21:05.662Z,60.32
2023-01-28T04:23:32.536Z,60.40
2023-01-28T04:25:59.433Z,60.15
2023-01-28T04:28:26.334Z,60.10
2023-01-28T04:30:53.552Z,60.01
2023-01-28T04:33:20.307Z,60.19
2023-01-28T04:35:47.069Z,60.12
2023-01-28T04:38:13.917Z,59.93
2023-01-28T04:40:40.672Z,60.24
2023-01-28T04:43:07.442Z,59.96
2023-01-28T04:45:34.227Z,59.63
2023-01-28T04:48:00.988Z,60.04
2023-01-28T04:50:27.801Z,59.59
2023-01-28T04:52:54.548Z,59.86
2023-01-28T04:55:21.315Z,59.98
2023-01-28T04:57:50.602Z,60.03
2023-01-28T05:00:18.110Z,59.62
2023-01-28T05:02:44.954Z,59.54
2023-01-28T05:05:11.721Z,59.62
2023-01-28T05:07:38.503Z,59.64
2023-01-28T05:10:06.029Z,59.54
2023-01-28T05:12:34.006Z,59.85
2023-01-28T05:15:01.367Z,59.41
2023-01-28T05:17:28.908Z,60.05
2023-01-28T05:19:55.726Z,59.57
2023-01-28T05:22:22.682Z,59.45
2023-01-28T05:24:49.491Z,59.50
2023-01-28T05:27:16.253Z,59.45
2023-01-28T05:29:46.547Z,59.71
2023-01-28T05:32:13.370Z,60.09
2023-01-28T05:34:40.208Z,59.98
2023-01-28T05:37:06.987Z,59.52
2023-01-28T05:39:33.785Z,59.92
2023-01-28T05:42:00.579Z,59.76
2023-01-28T05:44:27.355Z,59.60
2023-01-28T05:46:54.303Z,59.56
2023-01-28T05:52:30.532Z,59.82
2023-01-28T05:54:57.329Z,59.76
2023-01-28T05:57:24.116Z,59.43
2023-01-28T05:59:50.905Z,59.96
2023-01-28T06:02:17.678Z,60.10
2023-01-28T06:04:44.450Z,59.57
2023-01-28T06:07:13.234Z,60.19
2023-01-28T06:09:40.007Z,59.87
2023-01-28T06:12:07.019Z,59.58
2023-01-28T06:14:33.793Z,60.04
2023-01-28T06:17:00.582Z,59.65
2023-01-28T06:19:27.360Z,59.98
2023-01-28T06:21:54.160Z,59.62
2023-01-28T06:24:21.434Z,59.48
2023-01-28T06:26:48.267Z,59.79
2023-01-28T06:29:15.166Z,59.77
2023-01-28T06:31:42.051Z,59.99
2023-01-28T06:34:10.338Z,59.64
2023-01-28T06:36:38.073Z,59.89
2023-01-28T06:39:05.178Z,59.64
2023-01-28T06:41:31.943Z,59.65
2023-01-28T06:43:58.698Z,60.02
2023-01-28T06:46:25.544Z,59.58
2023-01-28T06:48:52.592Z,59.47
2023-01-28T06:51:19.592Z,59.53
2023-01-28T06:53:46.415Z,59.52
2023-01-28T06:56:15.653Z,59.72
2023-01-28T06:58:44.727Z,59.92
2023-01-28T07:01:17.135Z,59.88
2023-01-28T07:03:43.998Z,59.96
2023-01-28T07:06:10.786Z,59.74
2023-01-28T07:08:37.878Z,59.63
2023-01-28T07:11:04.862Z,59.87
2023-01-28T07:13:31.686Z,59.64
2023-01-28T07:15:58.666Z,59.69
2023-01-28T07:18:25.517Z,59.72
2023-01-28T07:20:52.379Z,59.85
2023-01-28T07:23:19.255Z,59.74
2023-01-28T07:25:46.062Z,60.02
2023-01-28T07:28:13.210Z,59.97
2023-01-28T07:30:40.101Z,59.65
2023-01-28T07:33:06.889Z,59.51
2023-01-28T07:35:33.653Z,59.41
2023-01-28T07:38:01.316Z,59.53
2023-01-28T07:40:28.922Z,59.80
2023-01-28T07:42:56.680Z,59.96
2023-01-28T07:45:28.638Z,59.61
2023-01-28T07:47:57.391Z,59.81
2023-01-28T07:50:25.571Z,60.00
2023-01-28T07:52:52.520Z,59.64
2023-01-28T07:55:19.278Z,59.33
2023-01-28T07:58:08.065Z,59.12
2023-01-28T08:00:36.811Z,59.97
2023-01-28T08:03:16.860Z,59.45
2023-01-28T08:05:49.852Z,59.90
2023-01-28T08:08:20.210Z,59.46
2023-01-28T08:10:48.370Z,59.64
2023-01-28T08:13:16.962Z,59.72
2023-01-28T08:15:44.833Z,59.50
2023-01-28T08:18:21.126Z,59.40
2023-01-28T08:20:48.221Z,59.43
2023-01-28T08:23:18.645Z,59.70
2023-01-28T08:25:46.734Z,59.27
2023-01-28T08:28:15.028Z,59.04
2023-01-28T08:30:42.501Z,59.49
2023-01-28T08:33:11.937Z,59.29
2023-01-28T08:35:38.742Z,59.36
2023-01-28T08:38:06.956Z,59.23
2023-01-28T08:40:41.100Z,58.89
2023-01-28T08:43:07.988Z,59.41
2023-01-28T08:45:34.784Z,59.11
2023-01-28T08:48:20.519Z,58.86
2023-01-28T08:50:47.292Z,58.81
2023-01-28T08:53:17.667Z,58.99
2023-01-28T08:55:45.210Z,58.70
2023-01-28T08:58:15.757Z,58.61
2023-01-28T09:00:43.685Z,58.53
2023-01-28T09:03:10.482Z,58.51
2023-01-28T09:05:42.196Z,58.44
2023-01-28T09:08:13.852Z,58.07
2023-01-28T09:10:42.006Z,58.33
2023-01-28T09:13:15.044Z,58.13
2023-01-28T09:15:42.791Z,58.36
2023-01-28T09:18:09.653Z,58.10
2023-01-28T09:20:37.795Z,58.60
2023-01-28T09:23:05.601Z,58.35
2023-01-28T09:25:32.637Z,57.76
2023-01-28T09:28:00.110Z,57.91
2023-01-28T09:30:27.481Z,57.78
2023-01-28T09:32:56.428Z,57.78
2023-01-28T09:35:23.245Z,57.60
2023-01-28T09:37:50.211Z,58.04
2023-01-28T09:40:34.870Z,57.79
2023-01-28T09:43:27.413Z,58.00
2023-01-28T09:45:59.168Z,57.78
2023-01-28T09:48:47.610Z,58.01
2023-01-28T09:51:52.231Z,58.16
2023-01-28T09:54:55.389Z,57.73
2023-01-28T09:57:25.813Z,58.25
2023-01-28T09:59:53.038Z,57.86
2023-01-28T10:02:29.848Z,57.88
2023-01-28T10:05:15.905Z,57.79
2023-01-28T10:07:57.666Z,58.14
2023-01-28T10:10:35.623Z,57.99
2023-01-28T10:13:26.460Z,57.71
2023-01-28T10:16:10.934Z,57.59
2023-01-28T10:19:07.456Z,58.27
2023-01-28T10:21:48.572Z,58.06
2023-01-28T10:24:26.064Z,57.83
2023-01-28T10:26:53.308Z,58.03
2023-01-28T10:29:26.066Z,58.25
2023-01-28T10:32:11.713Z,57.83
2023-01-28T10:34:38.466Z,58.32
2023-01-28T10:37:05.432Z,57.91
2023-01-28T10:39:32.206Z,57.81
2023-01-28T10:41:59.520Z,57.71
2023-01-28T10:44:35.271Z,58.04
2023-01-28T10:47:12.842Z,57.70
2023-01-28T10:49:46.751Z,57.61
2023-01-28T10:52:15.629Z,57.71
2023-01-28T10:54:42.460Z,57.61
2023-01-28T10:57:16.731Z,57.89
2023-01-28T10:59:43.842Z,57.93
2023-01-28T11:02:35.735Z,57.71
2023-01-28T11:05:27.247Z,57.92
2023-01-28T11:08:17.209Z,57.74
2023-01-28T11:10:45.845Z,57.44
2023-01-28T11:13:25.111Z,57.42
2023-01-28T11:16:10.950Z,57.33
2023-01-28T11:18:52.786Z,57.40
2023-01-28T11:21:28.359Z,57.29
2023-01-28T11:24:06.577Z,57.56
2023-01-28T11:26:38.244Z,57.31
2023-01-28T11:29:05.704Z,57.37
2023-01-28T11:31:43.079Z,57.08
2023-01-28T11:34:17.761Z,57.26
2023-01-28T11:37:03.994Z,57.05
2023-01-28T11:39:31.723Z,57.06
2023-01-28T11:42:20.492Z,57.28
2023-01-28T11:44:48.267Z,57.42
2023-01-28T11:47:54.010Z,56.99
2023-01-28T11:50:35.685Z,57.38
2023-01-28T11:53:36.903Z,56.69
2023-01-28T11:56:16.826Z,57.04
2023-01-28T11:59:17.142Z,57.16
2023-01-28T12:02:04.643Z,57.37
2023-01-28T12:05:03.542Z,57.49
2023-01-28T12:07:46.428Z,57.37
2023-01-28T12:10:42.585Z,57.30
2023-01-28T12:13:29.640Z,57.28
2023-01-28T12:16:13.542Z,57.26
2023-01-28T12:19:19.664Z,57.08
2023-01-28T12:22:26.709Z,57.48
2023-01-28T12:25:21.482Z,57.29
2023-01-28T12:27:54.360Z,58.11
2023-01-28T12:31:00.333Z,57.66
2023-01-28T12:34:10.070Z,57.47
2023-01-28T12:37:04.474Z,57.62
2023-01-28T12:39:53.102Z,58.17
2023-01-28T12:42:56.994Z,57.68
2023-01-28T12:45:37.360Z,57.93
2023-01-28T12:48:12.866Z,57.99
2023-01-28T12:50:57.546Z,57.83
2023-01-28T12:53:52.675Z,57.85
2023-01-28T12:56:40.954Z,57.81
2023-01-28T13:00:04.654Z,57.88
2023-01-28T13:02:38.573Z,57.39
2023-01-28T13:05:15.381Z,57.11
2023-01-28T13:08:01.298Z,57.20
2023-01-28T13:10:43.692Z,57.15
2023-01-28T13:13:16.624Z,57.01
2023-01-28T13:15:45.011Z,57.33
2023-01-28T13:18:48.231Z,57.37
2023-01-28T13:21:23.323Z,57.23
2023-01-28T13:24:02.860Z,57.17
2023-01-28T13:26:47.603Z,57.21
2023-01-28T13:29:14.258Z,57.32
2023-01-28T13:31:47.609Z,57.36
2023-01-28T13:34:26.541Z,57.08
2023-01-28T13:36:53.977Z,57.09
2023-01-28T13:39:24.572Z,57.45
2023-01-28T13:41:55.665Z,57.43
2023-01-28T13:44:25.305Z,57.16
2023-01-28T13:46:55.534Z,57.25
2023-01-28T13:49:45.969Z,57.16
2023-01-28T13:52:16.669Z,57.27
2023-01-28T13:55:00.235Z,57.01
2023-01-28T13:58:06.697Z,57.19
2023-01-28T14:01:20.001Z,57.07
2023-01-28T14:04:11.397Z,57.21
2023-01-28T14:07:10.780Z,56.89
2023-01-28T14:09:44.458Z,57.07
2023-01-28T14:13:05.923Z,57.35
2023-01-28T14:15:45.696Z,57.34
2023-01-28T14:18:36.599Z,56.94
2023-01-28T14:21:13.550Z,57.41
2023-01-28T14:23:49.291Z,57.12
2023-01-28T14:26:49.303Z,57.50
2023-01-28T14:29:33.481Z,57.26
2023-01-28T14:32:10.869Z,57.61
2023-01-28T14:34:37.912Z,57.46
2023-01-28T14:37:08.810Z,57.44
2023-01-28T14:39:46.167Z,56.92
2023-01-28T14:42:26.080Z,57.19
2023-01-28T14:45:34.763Z,57.49
2023-01-28T14:48:27.669Z,56.96
2023-01-28T14:51:38.059Z,57.04
2023-01-28T14:54:54.624Z,57.59
2023-01-28T14:57:32.796Z,57.51
2023-01-28T15:00:01.009Z,57.38
2023-01-28T15:02:31.550Z,57.08
2023-01-28T15:05:16.578Z,56.86
2023-01-28T15:07:48.878Z,57.55
2023-01-28T15:10:39.104Z,56.83
2023-01-28T15:13:11.304Z,57.46
2023-01-28T15:15:40.924Z,57.09
2023-01-28T15:18:18.420Z,57.43
2023-01-28T15:20:48.739Z,56.93
2023-01-28T15:23:20.487Z,57.03
2023-01-28T15:25:47.372Z,57.11
2023-01-28T15:28:35.663Z,57.00
2023-01-28T15:31:03.001Z,57.29
2023-01-28T15:33:29.896Z,57.79
2023-01-28T15:35:58.599Z,57.33
2023-01-28T15:38:28.853Z,57.20
2023-01-28T15:41:00.107Z,57.36
2023-01-28T15:43:34.014Z,57.14
2023-01-28T15:46:01.509Z,58.13
2023-01-28T15:48:34.034Z,57.44
2023-01-28T15:51:16.928Z,57.57
2023-01-28T15:53:46.734Z,57.42
2023-01-28T15:56:15.701Z,57.57
2023-01-28T15:58:43.088Z,57.81
2023-01-28T16:01:09.928Z,57.90
2023-01-28T16:03:39.903Z,58.08
2023-01-28T16:06:16.912Z,57.56
2023-01-28T16:08:52.341Z,57.31
2023-01-28T16:11:26.450Z,58.22
2023-01-28T16:13:54.668Z,57.58
2023-01-28T16:16:37.449Z,58.21
2023-01-28T16:19:07.743Z,57.91
2023-01-28T16:21:38.513Z,58.26
2023-01-28T16:24:23.360Z,57.93
2023-01-28T16:27:03.250Z,57.97
2023-01-28T16:29:31.386Z,58.10
2023-01-28T16:31:59.891Z,57.83
2023-01-28T16:34:30.056Z,58.59
2023-01-28T16:36:59.839Z,58.32
2023-01-28T16:39:26.598Z,58.49
2023-01-28T16:41:53.927Z,58.52
2023-01-28T16:44:20.778Z,58.59
2023-01-28T16:46:47.648Z,58.58
2023-01-28T16:49:14.498Z,58.39
2023-01-28T16:51:43.642Z,58.77
2023-01-28T16:54:16.474Z,58.41
2023-01-28T16:56:45.960Z,58.40
2023-01-28T16:59:15.645Z,58.71
2023-01-28T17:01:46.395Z,58.90
2023-01-28T17:04:13.785Z,59.09
2023-01-28T17:06:44.201Z,58.80
2023-01-28T17:09:13.319Z,58.61
2023-01-28T17:11:40.581Z,58.92
2023-01-28T17:14:08.381Z,59.11
2023-01-28T17:16:35.570Z,59.06
2023-01-28T17:19:02.446Z,58.72
2023-01-28T17:21:29.217Z,59.18
2023-01-28T17:23:58.167Z,58.81
2023-01-28T17:26:25.864Z,59.04
2023-01-28T17:28:53.537Z,59.21
2023-01-28T17:31:21.640Z,59.08
2023-01-28T17:33:53.495Z,58.92
2023-01-28T17:36:20.287Z,59.60
2023-01-28T17:38:47.120Z,59.66
2023-01-28T17:41:14.190Z,59.40
2023-01-28T17:43:41.132Z,59.62
2023-01-28T17:46:16.097Z,59.53
2023-01-28T17:48:45.602Z,60.09
2023-01-28T17:51:13.094Z,59.97
2023-01-28T17:53:39.915Z,59.94
2023-01-28T17:56:15.022Z,59.60
2023-01-28T17:58:41.827Z,59.61
2023-01-28T18:01:10.485Z,59.56
2023-01-28T18:03:37.265Z,60.02
2023-01-28T18:06:04.422Z,60.21
2023-01-28T18:08:32.216Z,59.99
2023-01-28T18:10:59.384Z,59.98
2023-01-28T18:13:26.164Z,60.40
2023-01-28T18:15:52.968Z,60.06
2023-01-28T18:18:19.744Z,60.47
2023-01-28T18:20:46.504Z,60.29
2023-01-28T18:23:13.333Z,59.96
2023-01-28T18:25:40.491Z,60.33
2023-01-28T18:28:08.319Z,60.47
2023-01-28T18:30:35.178Z,60.27
2023-01-28T18:33:02.006Z,60.14
2023-01-28T18:35:28.759Z,60.06
2023-01-28T18:37:55.532Z,60.22
2023-01-28T18:40:22.534Z,60.11
2023-01-28T18:42:49.295Z,60.54
2023-01-28T18:45:16.427Z,60.01
2023-01-28T18:47:43.494Z,59.97
2023-01-28T18:50:10.613Z,60.63
2023-01-28T18:52:37.377Z,60.74
2023-01-28T18:55:04.369Z,60.58
2023-01-28T18:57:31.142Z,60.47
2023-01-28T18:59:57.961Z,60.39
2023-01-28T19:02:24.891Z,60.72
2023-01-28T19:04:51.796Z,60.70
2023-01-28T19:07:18.607Z,60.85
2023-01-28T19:09:45.452Z,60.97
2023-01-28T19:12:12.239Z,60.89
2023-01-28T19:14:39.098Z,61.27
2023-01-28T19:17:06.185Z,61.27
2023-01-28T19:19:32.957Z,61.27
2023-01-28T19:21:59.721Z,61.05
2023-01-28T19:24:26.591Z,61.43
2023-01-28T19:26:53.514Z,61.25
2023-01-28T19:29:20.532Z,61.33
2023-01-28T19:31:50.018Z,60.97
2023-01-28T19:34:17.409Z,61.67
2023-01-28T19:36:44.800Z,61.51
2023-01-28T19:39:12.677Z,61.24
2023-01-28T19:41:39.509Z,61.18
2023-01-28T19:44:06.990Z,61.77
2023-01-28T19:46:35.972Z,60.90
2023-01-28T19:49:05.690Z,61.18
2023-01-28T19:51:32.503Z,61.26
2023-01-28T19:53:59.276Z,61.54
2023-01-28T19:56:27.006Z,61.44
2023-01-28T19:58:54.817Z,61.68
2023-01-28T20:01:26.595Z,61.64
2023-01-28T20:03:58.642Z,61.21
2023-01-28T20:06:28.248Z,61.60
2023-01-28T20:08:59.095Z,61.76
2023-01-28T20:11:26.683Z,61.49
2023-01-28T20:13:54.634Z,61.53
2023-01-28T20:16:25.090Z,61.63
2023-01-28T20:19:12.880Z,61.77
2023-01-28T20:21:39.758Z,61.64
2023-01-28T20:24:07.140Z,61.78
2023-01-28T20:26:37.576Z,61.80
2023-01-28T20:29:08.181Z,61.75
2023-01-28T20:31:35.463Z,62.02
2023-01-28T20:34:02.899Z,61.31
2023-01-28T20:36:30.182Z,61.66
2023-01-28T20:38:57.404Z,61.78
2023-01-28T20:41:26.409Z,61.38
2023-01-28T20:43:55.851Z,61.81
2023-01-28T20:46:27.647Z,62.12
2023-01-28T20:48:57.398Z,62.29
2023-01-28T20:51:28.361Z,62.13
2023-01-28T20:53:57.111Z,62.30
2023-01-28T20:56:25.737Z,62.06
2023-01-28T20:59:02.765Z,61.96
2023-01-28T21:01:34.347Z,61.98
2023-01-28T21:04:02.038Z,62.03
2023-01-28T21:06:29.247Z,61.73
2023-01-28T21:08:57.098Z,62.00
2023-01-28T21:11:25.585Z,61.82
2023-01-28T21:13:53.497Z,62.07
2023-01-28T21:16:21.060Z,62.19
2023-01-28T21:18:48.158Z,62.55
2023-01-28T21:21:22.137Z,62.10
2023-01-28T21:23:48.996Z,62.82
2023-01-28T21:26:16.582Z,62.43
2023-01-28T21:28:45.295Z,62.03
2023-01-28T21:31:20.272Z,62.65
2023-01-28T21:33:55.066Z,62.21
2023-01-28T21:36:22.693Z,62.54
2023-01-28T21:38:55.577Z,62.22
2023-01-28T21:41:22.608Z,62.74
2023-01-28T21:43:54.611Z,62.61
2023-01-28T21:46:23.992Z,62.08
2023-01-28T21:48:57.016Z,62.34
2023-01-28T21:51:39.227Z,62.84
2023-01-28T21:54:20.120Z,62.47
2023-01-28T21:56:49.785Z,62.52
2023-01-28T21:59:28.399Z,62.45
2023-01-28T22:02:04.360Z,62.89
2023-01-28T22:04:37.744Z,62.65
2023-01-28T22:07:07.908Z,63.05
2023-01-28T22:09:35.304Z,63.29
2023-01-28T22:12:03.586Z,62.59
2023-01-28T22:14:30.603Z,62.38
2023-01-28T22:16:57.458Z,62.53
2023-01-28T22:19:24.338Z,62.30
2023-01-28T22:21:51.158Z,63.18
2023-01-28T22:24:22.460Z,62.45
2023-01-28T22:26:49.827Z,62.88
2023-01-28T22:29:19.448Z,62.32
2023-01-28T22:31:48.298Z,62.53
2023-01-28T22:34:15.637Z,62.70
2023-01-28T22:36:42.715Z,62.86
2023-01-28T22:39:14.666Z,62.62
2023-01-28T22:41:43.245Z,62.36
2023-01-28T22:44:10.586Z,62.75
2023-01-28T22:46:37.513Z,62.92
2023-01-28T22:49:05.251Z,62.93
2023-01-28T22:51:35.753Z,62.85
2023-01-28T22:54:03.523Z,62.72
2023-01-28T22:56:31.270Z,62.73
2023-01-28T22:59:01.056Z,62.85
2023-01-28T23:01:28.735Z,62.80
2023-01-28T23:03:56.563Z,62.79
2023-01-28T23:06:26.436Z,62.87
2023-01-28T23:08:54.260Z,62.74
2023-01-28T23:11:27.730Z,62.63
2023-01-28T23:14:19.894Z,62.31
2023-01-28T23:17:06.387Z,62.78
2023-01-28T23:19:52.046Z,62.71
2023-01-28T23:22:50.527Z,62.80
2023-01-28T23:25:18.530Z,62.97
2023-01-28T23:27:45.332Z,62.70
2023-01-28T23:30:13.538Z,62.83
2023-01-28T23:32:49.435Z,62.52
2023-01-28T23:35:17.285Z,62.70
2023-01-28T23:37:44.235Z,63.01
2023-01-28T23:40:12.750Z,63.08
2023-01-28T23:42:39.833Z,63.07
2023-01-28T23:45:07.959Z,63.14
2023-01-28T23:47:34.779Z,62.70
2023-01-28T23:50:01.852Z,63.39
2023-01-28T23:52:28.683Z,62.83
2023-01-28T23:54:56.072Z,62.30
2023-01-28T23:57:22.844Z,63.08
2023-01-28T23:59:50.570Z,63.40
